Terminal Aerodrome Forecast
Issued by NWS

Home | Current Version | Previous Version | Graphics & Text | Print | Product List | Glossary On
Versions: 1 2 3 4 5 6 7 8 9 10 11 12 13 14 15
000
FTUS43 KBIS 201646 AAA
TAFDIK
TAF AMD
KDIK 201646Z 2017/2112 28008KT 5SM HZ BKN025 OVC040
     FM201800 28009G16KT P6SM SCT035 BKN045
     FM202000 27013G20KT P6SM SCT100
     FM210900 25008KT P6SM FEW250=

USA.gov is the U.S. government's official web portal to all federal, state and local government web resources and services.